Time;durP1;ratioP1;P1;durP2;ratioP2;P2;SDS_P1;SDS_P2;PMS_P1;PMS_P2;Temp;Humidity;BMP_temperature;BMP_pressure;BME280_temperature;BME280_humidity;BME280_pressure;Samples;Min_cycle;Max_cycle;Signal;HPM_P1;HPM_P2
2023/10/03 00:00:24;;;;;;;13.88;7.78;;;410.20;2355.20;;;;;;5076334;28;20473;-76
2023/10/03 00:02:54;;;;;;;22.85;8.80;;;410.30;2355.20;;;;;;5072613;28;20024;-76
2023/10/03 00:05:22;;;;;;;14.35;7.30;;;410.30;2355.20;;;;;;5079500;28;20016;-75
2023/10/03 00:07:49;;;;;;;18.33;7.90;;;410.30;2355.20;;;;;;5088522;28;20060;-75
2023/10/03 00:10:15;;;;;;;15.98;7.72;;;410.30;2355.20;;;;;;5067442;28;20029;-75
2023/10/03 00:12:42;;;;;;;19.08;7.78;;;410.30;2355.20;;;;;;5072069;28;20043;-75
2023/10/03 00:15:08;;;;;;;18.30;7.68;;;410.20;2355.20;;;;;;5064970;28;20510;-76
2023/10/03 00:17:34;;;;;;;18.92;7.40;;;410.20;2355.20;;;;;;5068010;28;20040;-75
2023/10/03 00:20:04;;;;;;;13.23;7.18;;;410.00;2355.20;;;;;;5073327;28;20020;-76
2023/10/03 00:22:30;;;;;;;17.27;8.15;;;410.00;2355.20;;;;;;5071885;28;20029;-76
2023/10/03 00:24:55;;;;;;;18.80;7.95;;;409.80;2355.20;;;;;;5075792;28;20480;-75
2023/10/03 00:27:21;;;;;;;13.32;7.65;;;409.70;2355.20;;;;;;5071579;28;20365;-76
2023/10/03 00:29:47;;;;;;;17.23;7.68;;;384.90;2329.60;;;;;;5071695;28;20012;-76
2023/10/03 00:32:13;;;;;;;17.55;10.93;;;384.90;2329.60;;;;;;5070733;28;20039;-76
2023/10/03 00:34:41;;;;;;;23.23;9.20;;;384.80;2329.60;;;;;;5073110;28;20020;-77
2023/10/03 00:37:07;;;;;;;17.50;7.43;;;384.70;2329.60;;;;;;5073196;28;20063;-76
2023/10/03 00:39:33;;;;;;;19.70;8.85;;;384.60;2329.60;;;;;;5071082;28;20083;-76
2023/10/03 00:42:02;;;;;;;20.65;9.38;;;384.50;2329.60;;;;;;5071216;28;20032;-76
2023/10/03 00:44:28;;;;;;;19.85;8.70;;;384.40;2329.60;;;;;;5072962;28;20028;-76
2023/10/03 00:46:54;;;;;;;21.15;9.65;;;384.40;2329.60;;;;;;5073092;28;20056;-76
2023/10/03 00:49:20;;;;;;;17.85;9.07;;;384.40;2329.60;;;;;;5073108;28;20068;-76
2023/10/03 00:51:46;;;;;;;17.77;9.20;;;384.60;2329.60;;;;;;5071601;28;20158;-76
2023/10/03 00:54:13;;;;;;;22.25;8.77;;;384.50;2329.60;;;;;;5073054;28;20091;-76
2023/10/03 00:56:43;;;;;;;25.38;10.80;;;384.50;2329.60;;;;;;5072950;28;20508;-76
2023/10/03 00:59:10;;;;;;;18.98;8.73;;;384.70;2329.60;;;;;;5071818;28;20389;-76
2023/10/03 01:01:36;;;;;;;22.38;8.93;;;384.90;2329.60;;;;;;5071557;28;20079;-77
2023/10/03 01:04:04;;;;;;;19.92;8.60;;;384.90;2329.60;;;;;;5072471;28;20469;-76
2023/10/03 01:06:29;;;;;;;21.17;8.60;;;384.80;2329.60;;;;;;5070452;28;20028;-76
2023/10/03 01:08:55;;;;;;;22.05;7.63;;;384.70;2329.60;;;;;;5071199;28;20035;-76
2023/10/03 01:11:24;;;;;;;17.75;8.63;;;384.70;2329.60;;;;;;5071698;28;20064;-76
2023/10/03 01:13:56;;;;;;;25.77;9.23;;;384.80;2329.60;;;;;;5070964;28;20013;-76
2023/10/03 01:16:33;;;;;;;21.15;8.65;;;384.90;2329.60;;;;;;5071075;28;20521;-76
2023/10/03 01:19:11;;;;;;;23.05;8.20;;;384.90;2329.60;;;;;;5067865;28;20025;-77
2023/10/03 01:21:37;;;;;;;22.63;8.57;;;384.80;2329.60;;;;;;5069796;28;20127;-76
2023/10/03 01:24:07;;;;;;;23.50;9.60;;;384.70;2329.60;;;;;;5071593;28;20472;-76
2023/10/03 01:26:32;;;;;;;20.30;8.93;;;384.70;2329.60;;;;;;5070837;28;20036;-76
2023/10/03 01:28:59;;;;;;;21.80;8.40;;;384.60;2329.60;;;;;;5065741;28;20021;-76
2023/10/03 01:31:27;;;;;;;17.67;7.97;;;384.60;2329.60;;;;;;5069864;28;20059;-77
2023/10/03 01:33:53;;;;;;;20.50;9.50;;;384.60;2329.60;;;;;;5069801;28;20017;-76
2023/10/03 01:36:18;;;;;;;21.98;9.43;;;384.60;2329.60;;;;;;5075025;28;20024;-77
2023/10/03 01:38:45;;;;;;;17.50;8.60;;;384.50;2329.60;;;;;;5073563;28;20527;-75
2023/10/03 01:41:12;;;;;;;15.88;8.23;;;384.40;2329.60;;;;;;5072869;28;20496;-76
2023/10/03 01:43:43;;;;;;;19.13;8.27;;;384.30;2329.60;;;;;;5090649;28;20024;-76
2023/10/03 01:46:09;;;;;;;14.25;9.02;;;384.20;2329.60;;;;;;5073516;28;20066;-75
2023/10/03 01:48:36;;;;;;;22.98;9.00;;;384.20;2329.60;;;;;;5074727;28;20016;-75
2023/10/03 01:51:02;;;;;;;15.43;7.95;;;384.20;2329.60;;;;;;5073248;28;20485;-76
2023/10/03 01:53:29;;;;;;;16.60;8.27;;;384.20;2329.60;;;;;;5073230;28;20050;-75
2023/10/03 01:55:58;;;;;;;31.02;8.45;;;384.10;2329.60;;;;;;5073053;28;20028;-76
2023/10/03 01:58:25;;;;;;;22.02;9.60;;;384.10;2329.60;;;;;;5074287;28;20025;-76
2023/10/03 02:00:51;;;;;;;20.77;8.50;;;384.40;2329.60;;;;;;5074513;28;20035;-76
2023/10/03 02:03:18;;;;;;;18.88;8.65;;;384.40;2329.60;;;;;;5073953;28;20020;-76
2023/10/03 02:05:45;;;;;;;14.82;9.30;;;384.40;2329.60;;;;;;5071181;28;20033;-76
2023/10/03 02:08:18;;;;;;;17.25;8.20;;;384.40;2329.60;;;;;;5072537;28;20028;-76
2023/10/03 02:10:48;;;;;;;19.42;8.48;;;384.50;2329.60;;;;;;5070903;28;20023;-76
2023/10/03 02:13:15;;;;;;;14.48;7.75;;;384.40;2329.60;;;;;;5073175;28;20038;-76
2023/10/03 02:15:44;;;;;;;19.98;8.77;;;384.40;2329.60;;;;;;5073986;28;20016;-76
2023/10/03 02:18:14;;;;;;;19.15;7.78;;;384.40;2329.60;;;;;;5073937;28;20020;-76
2023/10/03 02:20:47;;;;;;;18.50;8.50;;;384.40;2329.60;;;;;;5073084;28;20027;-76
2023/10/03 02:23:19;;;;;;;17.98;7.88;;;384.30;2329.60;;;;;;5073636;28;20024;-77
2023/10/03 02:25:46;;;;;;;16.00;7.35;;;384.30;2329.60;;;;;;5071540;28;20025;-76
2023/10/03 02:28:16;;;;;;;16.15;7.25;;;384.70;2329.60;;;;;;5073800;28;20388;-76
2023/10/03 02:30:43;;;;;;;19.30;8.32;;;384.30;2329.60;;;;;;5069180;28;20017;-77
2023/10/03 02:33:14;;;;;;;17.98;8.73;;;384.20;2329.60;;;;;;5072180;28;20021;-76
2023/10/03 02:35:44;;;;;;;19.70;8.55;;;384.30;2329.60;;;;;;5072217;28;20101;-76
2023/10/03 02:38:17;;;;;;;15.65;8.02;;;384.20;2329.60;;;;;;5072657;28;20103;-76
2023/10/03 02:40:43;;;;;;;22.13;7.63;;;384.10;2329.60;;;;;;5072850;28;20056;-76
2023/10/03 02:43:13;;;;;;;19.00;7.88;;;384.20;2329.60;;;;;;5072952;28;20021;-76
2023/10/03 02:45:41;;;;;;;21.13;7.88;;;384.10;2329.60;;;;;;5073425;28;20044;-76
2023/10/03 02:48:14;;;;;;;20.30;8.30;;;384.00;2329.60;;;;;;5072137;28;20363;-76
2023/10/03 02:50:47;;;;;;;13.52;7.30;;;359.30;2329.60;;;;;;5073584;28;20074;-76
2023/10/03 02:53:20;;;;;;;20.75;8.05;;;359.30;2329.60;;;;;;5088903;28;20021;-76
2023/10/03 02:55:47;;;;;;;22.92;8.73;;;384.00;2329.60;;;;;;5072176;28;20389;-76
2023/10/03 02:58:14;;;;;;;15.13;8.35;;;384.00;2329.60;;;;;;5073447;28;20074;-76
2023/10/03 03:00:41;;;;;;;18.48;8.23;;;359.30;2329.60;;;;;;5069759;28;20401;-76
2023/10/03 03:03:11;;;;;;;22.08;9.65;;;359.20;2329.60;;;;;;5071743;28;20108;-76
2023/10/03 03:05:38;;;;;;;22.38;9.48;;;359.10;2329.60;;;;;;5072026;28;20107;-76
2023/10/03 03:08:21;;;;;;;13.57;8.90;;;359.30;2329.60;;;;;;5075869;28;20013;-76
2023/10/03 03:10:50;;;;;;;17.58;8.23;;;359.30;2329.60;;;;;;5072357;28;20500;-77
2023/10/03 03:13:16;;;;;;;20.30;8.70;;;384.00;2329.60;;;;;;5073088;28;20470;-76
2023/10/03 03:16:00;;;;;;;20.48;9.00;;;384.00;2329.60;;;;;;5072729;28;20055;-76
2023/10/03 03:18:31;;;;;;;18.00;8.27;;;359.30;2329.60;;;;;;5071287;28;20012;-75
2023/10/03 03:20:58;;;;;;;20.58;8.05;;;359.20;2329.60;;;;;;5072823;28;20482;-76
2023/10/03 03:23:36;;;;;;;25.92;8.50;;;359.10;2329.60;;;;;;5072771;28;20066;-76
2023/10/03 03:26:33;;;;;;;18.77;9.48;;;359.10;2329.60;;;;;;5071540;28;20103;-77
2023/10/03 03:29:01;;;;;;;21.00;9.43;;;359.10;2329.60;;;;;;5070624;28;20485;-76
2023/10/03 03:31:26;;;;;;;15.55;9.35;;;359.10;2329.60;;;;;;5088092;28;20052;-76
2023/10/03 03:33:56;;;;;;;17.20;9.50;;;359.10;2329.60;;;;;;5071204;28;20028;-76
2023/10/03 03:36:24;;;;;;;17.23;7.80;;;359.30;2329.60;;;;;;5071850;28;20020;-76
2023/10/03 03:38:51;;;;;;;24.15;8.68;;;359.30;2329.60;;;;;;5071277;28;20035;-76
2023/10/03 03:41:18;;;;;;;20.38;8.32;;;359.30;2329.60;;;;;;5068975;28;20044;-77
2023/10/03 03:43:44;;;;;;;16.80;7.72;;;359.30;2329.60;;;;;;5070500;28;20120;-76
2023/10/03 03:46:12;;;;;;;20.65;8.07;;;359.30;2329.60;;;;;;5072417;28;20127;-77
2023/10/03 03:48:38;;;;;;;15.50;8.50;;;384.00;2329.60;;;;;;5072489;28;20016;-76
2023/10/03 03:51:12;;;;;;;24.05;8.35;;;384.10;2329.60;;;;;;5072065;28;20424;-76
2023/10/03 03:53:43;;;;;;;22.25;8.95;;;384.20;2329.60;;;;;;5072026;28;20012;-76
2023/10/03 03:56:12;;;;;;;18.17;8.57;;;384.30;2329.60;;;;;;5071876;28;20020;-76
2023/10/03 03:58:40;;;;;;;22.05;7.90;;;384.20;2329.60;;;;;;5071726;28;20016;-76
2023/10/03 04:01:19;;;;;;;16.85;8.65;;;384.10;2329.60;;;;;;5070998;28;20036;-76
2023/10/03 04:03:46;;;;;;;25.98;8.73;;;384.10;2329.60;;;;;;5071632;28;20017;-76
2023/10/03 04:06:12;;;;;;;20.80;8.90;;;384.20;2329.60;;;;;;5070666;28;20385;-77
2023/10/03 04:08:39;;;;;;;20.65;8.80;;;384.20;2329.60;;;;;;5071146;28;20040;-76
2023/10/03 04:11:07;;;;;;;16.13;7.97;;;384.20;2329.60;;;;;;5071481;28;20020;-76
2023/10/03 04:13:38;;;;;;;14.52;7.57;;;384.10;2329.60;;;;;;5072306;28;20024;-76
2023/10/03 04:16:06;;;;;;;15.98;8.65;;;384.10;2329.60;;;;;;5070885;28;20114;-76
2023/10/03 04:18:37;;;;;;;22.63;8.55;;;384.10;2329.60;;;;;;5057586;28;20087;-76
2023/10/03 04:21:04;;;;;;;16.65;8.35;;;384.10;2329.60;;;;;;5067041;28;20032;-75
2023/10/03 04:23:30;;;;;;;16.23;7.78;;;384.10;2329.60;;;;;;5072404;28;20024;-76
2023/10/03 04:25:57;;;;;;;20.52;8.23;;;384.00;2329.60;;;;;;5070521;28;20033;-76
2023/10/03 04:28:22;;;;;;;23.73;8.85;;;384.10;2329.60;;;;;;5071464;28;20020;-76
2023/10/03 04:30:49;;;;;;;27.15;10.63;;;384.00;2329.60;;;;;;5065302;28;20028;-76
2023/10/03 04:33:20;;;;;;;19.15;10.50;;;359.30;2329.60;;;;;;5073585;28;20016;-76
2023/10/03 04:35:46;;;;;;;32.70;10.95;;;359.20;2329.60;;;;;;5084437;28;20031;-76
2023/10/03 04:38:16;;;;;;;25.30;11.18;;;359.30;2329.60;;;;;;5085750;28;20055;-77
2023/10/03 04:40:43;;;;;;;23.20;11.00;;;359.30;2329.60;;;;;;5067180;28;20056;-77
2023/10/03 04:43:15;;;;;;;27.83;10.93;;;359.20;2329.60;;;;;;5063250;28;20033;-76
2023/10/03 04:45:41;;;;;;;21.58;10.68;;;359.20;2329.60;;;;;;5093774;28;20024;-77
2023/10/03 04:48:10;;;;;;;18.92;10.73;;;359.10;2329.60;;;;;;5079615;28;20078;-77
2023/10/03 04:50:37;;;;;;;21.90;11.45;;;359.00;2329.60;;;;;;5065410;28;20154;-77
2023/10/03 04:53:05;;;;;;;29.38;12.38;;;359.00;2329.60;;;;;;5062597;28;20104;-76
2023/10/03 04:55:32;;;;;;;20.10;11.00;;;359.00;2329.60;;;;;;5073610;28;20471;-77
2023/10/03 04:57:57;;;;;;;24.75;11.32;;;358.90;2329.60;;;;;;5070630;28;20021;-77
2023/10/03 05:00:23;;;;;;;21.90;10.80;;;358.90;2329.60;;;;;;5066013;28;20025;-77
2023/10/03 05:02:53;;;;;;;18.63;10.40;;;358.70;2329.60;;;;;;5066377;28;20447;-77
2023/10/03 05:05:27;;;;;;;29.13;12.27;;;358.70;2329.60;;;;;;5065978;28;20036;-77
2023/10/03 05:07:56;;;;;;;30.05;12.05;;;358.50;2329.60;;;;;;5073031;28;20067;-78
2023/10/03 05:10:23;;;;;;;18.40;10.50;;;358.50;2329.60;;;;;;5067167;28;20025;-78
2023/10/03 05:12:51;;;;;;;25.10;10.65;;;358.40;2329.60;;;;;;5074816;28;20503;-77
2023/10/03 05:15:17;;;;;;;26.05;12.57;;;358.50;2329.60;;;;;;5067432;28;20027;-77
2023/10/03 05:17:44;;;;;;;32.47;15.82;;;358.50;2329.60;;;;;;5087274;28;20047;-78
2023/10/03 05:20:12;;;;;;;35.40;17.15;;;358.60;2329.60;;;;;;5073978;28;20036;-78
2023/10/03 05:22:38;;;;;;;38.08;16.95;;;358.60;2329.60;;;;;;5072378;28;20111;-77
2023/10/03 05:25:07;;;;;;;39.15;17.83;;;358.60;2329.60;;;;;;5069659;28;20167;-78
2023/10/03 05:27:33;;;;;;;31.23;16.77;;;358.50;2329.60;;;;;;5090901;28;20107;-79
2023/10/03 05:30:05;;;;;;;31.20;14.85;;;358.50;2329.60;;;;;;5078974;28;20494;-79
2023/10/03 05:32:33;;;;;;;32.30;14.35;;;358.50;2329.60;;;;;;5070570;28;20052;-79
2023/10/03 05:35:00;;;;;;;35.67;13.95;;;358.50;2329.60;;;;;;5069107;28;20017;-81
2023/10/03 05:37:26;;;;;;;24.17;13.95;;;358.50;2329.60;;;;;;5071962;28;20045;-79
2023/10/03 05:39:53;;;;;;;29.40;14.23;;;358.50;2329.60;;;;;;5095314;28;20040;-80
2023/10/03 05:42:18;;;;;;;30.20;13.18;;;358.40;2329.60;;;;;;5078072;28;20135;-79
2023/10/03 05:44:45;;;;;;;29.92;12.30;;;358.50;2329.60;;;;;;5070329;28;20116;-78
2023/10/03 05:47:10;;;;;;;29.50;14.30;;;358.40;2329.60;;;;;;5081068;28;20389;-79
2023/10/03 05:49:36;;;;;;;40.10;17.23;;;358.40;2329.60;;;;;;5072337;28;20112;-78
2023/10/03 05:52:02;;;;;;;41.00;19.77;;;358.50;2329.60;;;;;;5078702;28;20432;-78
2023/10/03 05:54:30;;;;;;;41.53;20.63;;;358.50;2329.60;;;;;;5073351;28;20103;-78
2023/10/03 05:56:56;;;;;;;40.13;19.98;;;358.50;2329.60;;;;;;5059971;28;20520;-77
2023/10/03 05:59:23;;;;;;;36.33;22.65;;;358.50;2329.60;;;;;;5078664;28;20036;-77
2023/10/03 06:01:49;;;;;;;55.97;22.25;;;358.70;2329.60;;;;;;5078220;28;20043;-79
2023/10/03 06:04:15;;;;;;;39.47;19.88;;;358.70;2329.60;;;;;;5066211;28;21283;-78
2023/10/03 06:06:41;;;;;;;45.17;21.38;;;358.80;2329.60;;;;;;5064354;28;20444;-78
2023/10/03 06:09:10;;;;;;;40.70;19.10;;;358.90;2329.60;;;;;;5081374;28;20480;-77
2023/10/03 06:11:36;;;;;;;28.35;18.02;;;359.00;2329.60;;;;;;5076569;28;20093;-81
2023/10/03 06:14:03;;;;;;;25.90;14.88;;;359.20;2329.60;;;;;;5077555;28;20024;-77
2023/10/03 06:16:30;;;;;;;36.85;16.67;;;384.00;2329.60;;;;;;5080557;28;20103;-77
2023/10/03 06:18:57;;;;;;;31.27;14.18;;;384.40;2329.60;;;;;;5066910;28;20012;-77
2023/10/03 06:21:25;;;;;;;26.58;14.23;;;384.60;2329.60;;;;;;5070729;28;20033;-77
2023/10/03 06:23:51;;;;;;;26.98;12.45;;;384.90;2329.60;;;;;;5080018;28;20486;-77
2023/10/03 06:26:18;;;;;;;25.38;11.95;;;409.60;2355.20;;;;;;5069723;28;20042;-77
2023/10/03 06:28:45;;;;;;;23.98;11.30;;;409.80;2355.20;;;;;;5068237;28;20522;-77
2023/10/03 06:31:11;;;;;;;19.52;9.35;;;410.00;2355.20;;;;;;5076203;28;20020;-77
2023/10/03 06:33:37;;;;;;;23.75;10.02;;;410.10;2355.20;;;;;;5070098;28;20024;-77
2023/10/03 06:36:06;;;;;;;16.55;9.70;;;410.40;2355.20;;;;;;5070059;28;20104;-77
2023/10/03 06:38:36;;;;;;;23.23;9.20;;;410.50;2355.20;;;;;;5068608;28;20504;-77
2023/10/03 06:41:07;;;;;;;26.92;10.40;;;435.20;2355.20;;;;;;5082223;28;20049;-77
2023/10/03 06:43:33;;;;;;;20.33;8.65;;;435.50;2355.20;;;;;;5094058;28;20021;-77
2023/10/03 06:46:00;;;;;;;20.27;7.88;;;435.60;2355.20;;;;;;5066508;28;20086;-77
2023/10/03 06:48:26;;;;;;;17.08;9.48;;;436.00;2355.20;;;;;;5066518;28;20025;-77
2023/10/03 06:50:52;;;;;;;22.60;10.00;;;460.90;2380.80;;;;;;5073070;28;20062;-78
2023/10/03 06:53:18;;;;;;;17.25;8.60;;;461.10;2380.80;;;;;;5075304;28;20023;-78
2023/10/03 06:55:45;;;;;;;16.73;8.23;;;461.50;2380.80;;;;;;5069133;28;20028;-78
2023/10/03 06:58:11;;;;;;;18.95;8.57;;;461.40;2380.80;;;;;;5067108;28;20021;-77
2023/10/03 07:00:39;;;;;;;16.08;8.20;;;461.60;2380.80;;;;;;5071082;28;20556;-77
2023/10/03 07:03:05;;;;;;;21.25;8.73;;;486.50;2380.80;;;;;;5069213;28;20029;-78
2023/10/03 07:05:32;;;;;;;11.95;8.20;;;486.90;2380.80;;;;;;5063158;28;20025;-79
2023/10/03 07:07:58;;;;;;;15.45;8.07;;;486.60;2380.80;;;;;;5075151;28;20028;-77
2023/10/03 07:10:25;;;;;;;20.33;8.15;;;486.80;2380.80;;;;;;5075007;28;20108;-76
2023/10/03 07:12:51;;;;;;;14.98;7.68;;;487.00;2380.80;;;;;;5074732;28;20063;-76
2023/10/03 07:15:17;;;;;;;18.98;8.40;;;487.10;2380.80;;;;;;5069100;28;20462;-74
2023/10/03 07:17:43;;;;;;;15.95;8.40;;;487.20;2380.80;;;;;;5069499;28;20036;-76
2023/10/03 07:20:10;;;;;;;23.27;8.43;;;512.10;2380.80;;;;;;5071150;28;20025;-76
2023/10/03 07:22:37;;;;;;;17.75;7.80;;;512.30;2380.80;;;;;;5066684;28;20041;-75
2023/10/03 07:25:06;;;;;;;22.05;8.80;;;512.60;2380.80;;;;;;5076959;28;20016;-75
2023/10/03 07:27:33;;;;;;;18.63;9.20;;;512.40;2380.80;;;;;;5071689;28;20032;-74
2023/10/03 07:30:02;;;;;;;20.77;9.55;;;512.60;2380.80;;;;;;5070034;28;20039;-75
2023/10/03 07:32:32;;;;;;;14.52;8.25;;;512.70;2380.80;;;;;;5086439;28;20473;-75
2023/10/03 07:34:59;;;;;;;19.33;8.80;;;512.80;2380.80;;;;;;5069814;28;20055;-75
2023/10/03 07:37:24;;;;;;;18.83;8.25;;;512.90;2380.80;;;;;;5072774;28;20043;-77
2023/10/03 07:39:51;;;;;;;18.52;8.57;;;537.90;2406.40;;;;;;5067322;28;20494;-75
2023/10/03 07:42:17;;;;;;;16.90;8.88;;;538.10;2406.40;;;;;;5078205;28;20550;-74
2023/10/03 07:44:44;;;;;;;16.02;8.60;;;538.40;2406.40;;;;;;5082406;28;20016;-75
2023/10/03 07:47:12;;;;;;;15.30;7.97;;;538.40;2406.40;;;;;;5073231;28;20031;-72
2023/10/03 07:49:41;;;;;;;16.25;7.50;;;563.20;2432.00;;;;;;5063372;28;20021;-74
2023/10/03 07:52:06;;;;;;;17.90;8.98;;;563.40;2432.00;;;;;;5071701;28;20016;-74
2023/10/03 07:54:33;;;;;;;16.75;8.75;;;563.60;2432.00;;;;;;5063375;28;20020;-76
2023/10/03 07:57:04;;;;;;;13.45;7.50;;;563.60;2432.00;;;;;;5077047;28;20154;-76
2023/10/03 07:59:31;;;;;;;16.42;7.95;;;563.90;2432.00;;;;;;5075285;28;20362;-73
2023/10/03 08:01:57;;;;;;;21.20;9.00;;;563.90;2406.40;;;;;;5070690;28;20037;-76
2023/10/03 08:04:24;;;;;;;18.92;8.30;;;563.80;2380.80;;;;;;5072747;28;20025;-75
2023/10/03 08:06:49;;;;;;;21.80;8.27;;;563.90;2380.80;;;;;;5069136;28;20020;-76
2023/10/03 08:09:17;;;;;;;30.45;8.18;;;588.80;2329.60;;;;;;5073559;28;20377;-76
2023/10/03 08:11:46;;;;;;;21.85;7.68;;;588.90;2304.00;;;;;;5072485;28;20036;-75
2023/10/03 08:14:13;;;;;;;23.95;7.78;;;589.10;2278.40;;;;;;5069427;28;20119;-76
2023/10/03 08:16:43;;;;;;;17.60;6.85;;;589.40;2176.00;;;;;;5072357;28;20016;-77
2023/10/03 08:19:20;;;;;;;20.23;7.22;;;589.50;2150.40;;;;;;5067201;28;20104;-76
2023/10/03 08:21:48;;;;;;;18.65;7.70;;;589.70;2073.60;;;;;;5071178;28;20041;-77
2023/10/03 08:24:14;;;;;;;21.02;6.38;;;589.70;2022.40;;;;;;5073892;28;20059;-78
2023/10/03 08:26:46;;;;;;;17.95;6.38;;;614.40;1996.80;;;;;;5071303;28;20074;-77
2023/10/03 08:29:21;;;;;;;13.73;6.00;;;614.60;1971.20;;;;;;5076702;28;20492;-79
2023/10/03 08:31:49;;;;;;;18.75;6.43;;;;;;;;;;5062405;28;20025;-78
2023/10/03 08:34:19;;;;;;;11.13;5.18;;;614.80;1945.60;;;;;;5066322;28;20027;-78
2023/10/03 08:36:45;;;;;;;14.18;6.60;;;614.70;1868.80;;;;;;5083588;28;20020;-77
2023/10/03 08:39:14;;;;;;;17.00;5.88;;;614.70;1868.80;;;;;;5073819;28;20060;-77
2023/10/03 08:42:13;;;;;;;9.00;5.00;;;614.60;1868.80;;;;;;5079836;28;20063;-76
2023/10/03 08:44:53;;;;;;;15.75;5.20;;;614.70;1843.20;;;;;;5067939;28;20037;-78
2023/10/03 08:47:29;;;;;;;14.05;5.75;;;614.80;1843.20;;;;;;5081549;28;20020;-77
2023/10/03 08:50:28;;;;;;;;;;;614.80;1868.80;;;;;;5075631;28;20029;-76
2023/10/03 08:53:12;;;;;;;12.73;5.32;;;615.00;1817.60;;;;;;5074404;28;19912;-76
2023/10/03 08:55:39;;;;;;;11.48;5.32;;;615.20;1766.40;;;;;;5071590;28;20025;-75
2023/10/03 08:58:08;;;;;;;12.23;5.30;;;615.00;1740.80;;;;;;5074892;28;20052;-75
2023/10/03 09:00:40;;;;;;;13.43;5.40;;;615.30;1766.40;;;;;;5074660;28;20020;-75
2023/10/03 09:03:11;;;;;;;17.63;6.55;;;615.30;1740.80;;;;;;5077103;28;20039;-74
2023/10/03 09:05:41;;;;;;;14.30;5.47;;;615.30;1715.20;;;;;;5076197;28;20103;-74
2023/10/03 09:08:12;;;;;;;17.85;5.00;;;640.00;1689.60;;;;;;5073416;28;20164;-75
2023/10/03 09:10:51;;;;;;;17.70;5.05;;;640.20;1689.60;;;;;;5081060;28;20031;-76
2023/10/03 09:13:27;;;;;;;16.13;5.63;;;640.00;1612.80;;;;;;5090412;28;20021;-76
2023/10/03 09:15:59;;;;;;;12.48;4.93;;;640.30;1638.40;;;;;;5071382;28;20025;-77
2023/10/03 09:18:29;;;;;;;12.52;5.60;;;640.60;1612.80;;;;;;5072213;28;20551;-73
2023/10/03 09:21:04;;;;;;;14.32;5.15;;;640.70;1612.80;;;;;;5067592;28;20436;-75
2023/10/03 09:23:39;;;;;;;12.23;5.30;;;665.70;1587.20;;;;;;5070253;28;20033;-74
2023/10/03 09:26:08;;;;;;;9.15;5.55;;;665.90;1587.20;;;;;;5071532;28;20021;-73
2023/10/03 09:28:37;;;;;;;16.15;6.55;;;666.20;1561.60;;;;;;5077369;28;20016;-73
2023/10/03 09:31:08;;;;;;;13.05;5.40;;;665.90;1561.60;;;;;;5071876;28;20021;-73
2023/10/03 09:33:38;;;;;;;10.50;5.32;;;666.00;1561.60;;;;;;5074104;28;20074;-78
2023/10/03 09:36:05;;;;;;;10.07;4.80;;;666.00;1536.00;;;;;;5073164;28;20036;-78
2023/10/03 09:38:47;;;;;;;15.93;5.82;;;666.10;1536.00;;;;;;5072404;28;20040;-75
2023/10/03 09:41:17;;;;;;;11.68;6.07;;;691.20;1587.20;;;;;;5076056;28;20052;-76
2023/10/03 09:43:56;;;;;;;11.85;5.60;;;691.30;1510.40;;;;;;5070293;28;20031;-75
2023/10/03 09:46:38;;;;;;;12.95;5.63;;;666.50;1484.80;;;;;;5085927;28;20111;-77
2023/10/03 09:49:08;;;;;;;14.82;5.78;;;691.30;1484.80;;;;;;5063904;28;20120;-75
2023/10/03 09:51:47;;;;;;;14.57;5.35;;;691.60;1484.80;;;;;;5069210;28;20543;-77
2023/10/03 09:54:24;;;;;;;12.40;5.90;;;691.50;1484.80;;;;;;5068936;28;20058;-77
2023/10/03 09:56:55;;;;;;;14.95;5.63;;;691.70;1484.80;;;;;;5070141;28;20104;-77
2023/10/03 09:59:23;;;;;;;10.98;5.35;;;691.80;1510.40;;;;;;5072515;28;20021;-76
2023/10/03 10:01:49;;;;;;;14.52;6.70;;;691.60;1459.20;;;;;;5071648;28;20059;-76
2023/10/03 10:04:19;;;;;;;11.77;5.47;;;691.60;1433.60;;;;;;5078959;28;20016;-76
2023/10/03 10:06:51;;;;;;;14.57;4.93;;;691.80;1459.20;;;;;;5077870;28;20033;-78
2023/10/03 10:09:28;;;;;;;17.30;6.28;;;692.00;1433.60;;;;;;5071502;28;20021;-76
2023/10/03 10:12:21;;;;;;;17.38;6.32;;;691.90;1382.40;;;;;;5069106;28;20031;-77
2023/10/03 10:17:45;;;;;;;12.80;6.22;;;692.00;1408.00;;;;;;5072369;28;20035;-76
2023/10/03 10:20:13;;;;;;;9.80;5.22;;;716.80;1433.60;;;;;;5071391;28;20103;-77
2023/10/03 10:23:01;;;;;;;14.73;5.38;;;692.00;1382.40;;;;;;5067823;28;20033;-78
2023/10/03 10:25:27;;;;;;;11.15;5.63;;;716.80;1408.00;;;;;;5084848;28;20024;-78
2023/10/03 10:28:05;;;;;;;13.32;5.32;;;716.80;1433.60;;;;;;5072581;28;20016;-78
2023/10/03 10:30:31;;;;;;;12.80;5.80;;;716.80;1382.40;;;;;;5068802;28;20033;-77
2023/10/03 10:33:21;;;;;;;8.68;5.05;;;692.00;1356.80;;;;;;5076045;28;20079;-78
2023/10/03 10:35:59;;;;;;;13.90;6.05;;;691.80;1382.40;;;;;;5077069;28;20020;-79
2023/10/03 10:38:31;;;;;;;10.23;5.05;;;692.00;1382.40;;;;;;5079987;28;20472;-78
2023/10/03 10:41:17;;;;;;;11.90;5.45;;;716.90;1382.40;;;;;;5078028;28;20513;-79
2023/10/03 10:44:14;;;;;;;13.15;5.78;;;691.90;1382.40;;;;;;5070009;28;20025;-79
2023/10/03 10:46:47;;;;;;;12.50;5.50;;;692.00;1331.20;;;;;;5085786;28;20024;-78
2023/10/03 10:49:31;;;;;;;10.95;5.80;;;716.80;1356.80;;;;;;5077524;28;20127;-79
2023/10/03 10:51:59;;;;;;;15.27;6.72;;;717.20;1382.40;;;;;;5075913;28;20052;-79
2023/10/03 10:54:25;;;;;;;23.92;6.20;;;717.30;1356.80;;;;;;5072529;28;20113;-78
2023/10/03 10:57:05;;;;;;;14.45;6.32;;;717.70;1331.20;;;;;;5075169;28;20127;-76
2023/10/03 10:59:35;;;;;;;12.57;4.95;;;717.60;1331.20;;;;;;5071686;28;20040;-78
2023/10/03 11:02:01;;;;;;;11.55;5.40;;;717.30;1305.60;;;;;;5071468;28;20036;-78
2023/10/03 11:04:33;;;;;;;10.82;5.65;;;717.40;1305.60;;;;;;5074323;28;20560;-79
2023/10/03 11:06:59;;;;;;;15.20;5.50;;;717.50;1280.00;;;;;;5073222;28;20074;-79
2023/10/03 11:09:25;;;;;;;11.15;5.68;;;717.60;1305.60;;;;;;5071164;28;20024;-79
2023/10/03 11:11:52;;;;;;;15.60;6.07;;;742.50;1356.80;;;;;;5072462;28;20044;-75
2023/10/03 11:14:31;;;;;;;13.45;5.82;;;742.50;1331.20;;;;;;5068533;28;20020;-77
2023/10/03 11:17:01;;;;;;;14.93;5.90;;;742.40;1331.20;;;;;;5073671;28;20063;-77
2023/10/03 11:19:30;;;;;;;13.18;6.00;;;717.70;1280.00;;;;;;5067773;28;20425;-77
2023/10/03 11:21:56;;;;;;;15.65;6.35;;;717.70;1305.60;;;;;;5075742;28;20036;-77
2023/10/03 11:24:22;;;;;;;16.35;6.28;;;742.50;1305.60;;;;;;5080916;28;20451;-77
2023/10/03 11:26:51;;;;;;;23.02;6.45;;;742.90;1305.60;;;;;;5073399;28;20022;-76
2023/10/03 11:29:46;;;;;;;16.17;5.43;;;717.70;1254.40;;;;;;5073537;28;20020;-77
2023/10/03 11:32:26;;;;;;;17.00;5.53;;;742.50;1305.60;;;;;;5078773;28;20043;-83
2023/10/03 11:34:53;;;;;;;19.80;6.88;;;742.50;1331.20;;;;;;5065433;28;20381;-80
2023/10/03 11:37:35;;;;;;;20.20;6.55;;;742.60;1331.20;;;;;;5065907;28;20110;-77
2023/10/03 11:40:22;;;;;;;18.15;6.88;;;742.80;1331.20;;;;;;5067541;28;20554;-78
2023/10/03 11:42:49;;;;;;;16.40;5.93;;;742.90;1331.20;;;;;;5081144;28;20040;-79
2023/10/03 11:45:28;;;;;;;12.23;5.60;;;742.80;1331.20;;;;;;5069801;28;20111;-77
2023/10/03 11:48:15;;;;;;;11.43;5.68;;;742.90;1331.20;;;;;;5079205;28;20037;-77
2023/10/03 11:50:41;;;;;;;13.25;5.53;;;742.50;1331.20;;;;;;5072416;28;20031;-77
2023/10/03 11:53:10;;;;;;;14.57;6.35;;;742.50;1305.60;;;;;;5064455;28;20025;-76
2023/10/03 11:55:36;;;;;;;15.43;5.85;;;742.50;1331.20;;;;;;5069825;28;20031;-76
2023/10/03 11:58:03;;;;;;;15.00;5.97;;;717.50;1305.60;;;;;;5064833;28;20479;-79
2023/10/03 12:00:29;;;;;;;17.70;6.85;;;742.40;1305.60;;;;;;5070971;28;20016;-78
2023/10/03 12:02:55;;;;;;;14.50;5.82;;;717.70;1305.60;;;;;;5060931;28;20048;-79
2023/10/03 12:05:22;;;;;;;14.00;6.10;;;742.60;1305.60;;;;;;5071799;28;20026;-78
2023/10/03 12:07:50;;;;;;;18.88;5.70;;;742.50;1305.60;;;;;;5070319;28;20111;-79
2023/10/03 12:10:18;;;;;;;12.35;6.25;;;742.90;1305.60;;;;;;5073687;28;20019;-80
2023/10/03 12:12:45;;;;;;;16.15;6.15;;;742.90;1331.20;;;;;;5077898;28;20035;-79
2023/10/03 12:15:14;;;;;;;20.40;6.30;;;743.10;1305.60;;;;;;5074018;28;20047;-78
2023/10/03 12:17:47;;;;;;;11.48;5.40;;;742.90;1280.00;;;;;;5062071;28;20063;-76
2023/10/03 12:20:16;;;;;;;13.50;6.10;;;742.60;1280.00;;;;;;5068054;28;20378;-76
2023/10/03 12:22:48;;;;;;;14.45;5.65;;;742.50;1280.00;;;;;;5069245;28;20053;-79